createdAt,value
2017-11-18T00:00:02.463Z,62.66
2017-11-18T00:02:30.835Z,63.39
2017-11-18T00:04:59.188Z,63.51
2017-11-18T00:07:27.491Z,63.58
2017-11-18T00:09:55.803Z,63.67
2017-11-18T00:12:24.158Z,64.04
2017-11-18T00:14:52.487Z,63.83
2017-11-18T00:17:21.619Z,63.81
2017-11-18T00:19:50.209Z,64.23
2017-11-18T00:22:18.505Z,64.28
2017-11-18T00:24:46.969Z,64.63
2017-11-18T00:27:15.279Z,64.72
2017-11-18T00:29:43.660Z,64.62
2017-11-18T00:32:11.947Z,64.71
2017-11-18T00:34:40.249Z,64.78
2017-11-18T00:37:08.536Z,65.00
2017-11-18T00:39:37.706Z,65.46
2017-11-18T00:42:06.006Z,65.61
2017-11-18T00:44:35.092Z,65.64
2017-11-18T00:47:03.425Z,65.63
2017-11-18T00:49:31.737Z,65.99
2017-11-18T00:52:00.081Z,65.92
2017-11-18T00:54:29.204Z,66.20
2017-11-18T00:56:57.508Z,66.30
2017-11-18T00:59:25.802Z,66.36
2017-11-18T01:01:54.192Z,66.28
2017-11-18T01:04:24.032Z,66.45
2017-11-18T01:06:53.092Z,65.92
2017-11-18T01:09:21.420Z,66.07
2017-11-18T01:11:50.514Z,65.96
2017-11-18T01:14:19.580Z,65.94
2017-11-18T01:16:47.895Z,65.91
2017-11-18T01:19:17.001Z,65.46
2017-11-18T01:21:45.366Z,65.53
2017-11-18T01:24:14.449Z,65.29
2017-11-18T01:26:42.836Z,65.09
2017-11-18T01:29:12.797Z,65.15
2017-11-18T01:31:41.148Z,64.68
2017-11-18T01:34:09.479Z,64.61
2017-11-18T01:36:37.788Z,64.34
2017-11-18T01:39:06.105Z,63.88
2017-11-18T01:41:35.172Z,63.80
2017-11-18T01:44:03.478Z,63.43
2017-11-18T01:46:31.785Z,63.03
2017-11-18T01:49:00.099Z,62.91
2017-11-18T01:51:28.492Z,62.17
2017-11-18T01:53:56.903Z,61.48
2017-11-18T01:56:25.255Z,61.15
2017-11-18T01:58:53.590Z,61.05
2017-11-18T02:01:22.720Z,61.19
2017-11-18T02:03:51.040Z,61.17
2017-11-18T02:06:19.362Z,61.29
2017-11-18T02:08:47.667Z,61.33
2017-11-18T02:11:15.969Z,61.58
2017-11-18T02:13:45.788Z,61.64
2017-11-18T02:16:14.085Z,61.93
2017-11-18T02:18:42.383Z,61.58
2017-11-18T02:21:11.570Z,61.89
2017-11-18T02:23:40.006Z,61.89
2017-11-18T02:26:08.388Z,62.42
2017-11-18T02:28:36.698Z,62.26
2017-11-18T02:31:05.089Z,61.91
2017-11-18T02:33:33.398Z,61.02
2017-11-18T02:36:02.477Z,61.45
2017-11-18T02:38:31.553Z,61.66
2017-11-18T02:40:59.851Z,61.64
2017-11-18T02:43:28.170Z,61.96
2017-11-18T02:45:57.253Z,61.77
2017-11-18T02:48:25.678Z,61.62
2017-11-18T02:50:53.975Z,61.32
2017-11-18T02:53:22.277Z,61.57
2017-11-18T02:55:50.582Z,61.71
2017-11-18T02:58:18.893Z,61.89
2017-11-18T03:00:47.185Z,61.39
2017-11-18T03:03:15.496Z,61.08
2017-11-18T03:05:43.834Z,60.75
2017-11-18T03:08:12.133Z,60.86
2017-11-18T03:10:40.512Z,60.61
2017-11-18T03:13:08.840Z,60.72
2017-11-18T03:15:37.242Z,61.14
2017-11-18T03:18:06.339Z,61.07
2017-11-18T03:20:35.418Z,61.35
2017-11-18T03:23:03.760Z,61.13
2017-11-18T03:25:32.061Z,61.12
2017-11-18T03:28:00.469Z,61.68
2017-11-18T03:30:29.723Z,61.36
2017-11-18T03:32:58.022Z,61.42
2017-11-18T03:35:26.320Z,61.79
2017-11-18T03:37:54.628Z,61.99
2017-11-18T03:40:22.942Z,62.02
2017-11-18T03:42:51.258Z,62.06
2017-11-18T03:45:19.619Z,62.23
2017-11-18T03:47:47.930Z,62.21
2017-11-18T03:50:16.250Z,62.72
2017-11-18T03:52:45.485Z,62.45
2017-11-18T03:55:13.784Z,62.34
2017-11-18T03:57:42.222Z,62.44
2017-11-18T04:00:11.306Z,62.22
2017-11-18T04:02:39.676Z,62.59
2017-11-18T04:05:07.988Z,62.79
2017-11-18T04:07:37.072Z,63.14
2017-11-18T04:10:05.368Z,63.15
2017-11-18T04:12:34.438Z,62.89
2017-11-18T04:15:02.881Z,62.48
2017-11-18T04:17:31.204Z,62.65
2017-11-18T04:20:01.024Z,62.31
2017-11-18T04:22:30.850Z,62.08
2017-11-18T04:24:59.906Z,62.18
2017-11-18T04:27:28.204Z,62.06
2017-11-18T04:29:56.515Z,62.26
2017-11-18T04:32:25.591Z,62.60
2017-11-18T04:34:53.968Z,62.13
2017-11-18T04:37:22.259Z,62.63
2017-11-18T04:39:50.600Z,62.17
2017-11-18T04:42:18.900Z,61.78
2017-11-18T04:44:47.190Z,61.88
2017-11-18T04:47:15.508Z,61.65
2017-11-18T04:49:44.564Z,61.67
2017-11-18T04:52:12.886Z,61.74
2017-11-18T04:54:41.375Z,61.92
2017-11-18T04:57:10.438Z,61.87
2017-11-18T04:59:39.001Z,62.22
2017-11-18T05:02:07.317Z,62.32
2017-11-18T05:04:37.242Z,62.51
2017-11-18T05:07:07.081Z,62.45
2017-11-18T05:09:36.164Z,62.78
2017-11-18T05:12:04.510Z,62.58
2017-11-18T05:14:32.960Z,62.91
2017-11-18T05:17:02.034Z,63.03
2017-11-18T05:19:31.137Z,63.22
2017-11-18T05:22:00.304Z,63.71
2017-11-18T05:24:28.613Z,64.16
2017-11-18T05:26:56.921Z,63.99
2017-11-18T05:29:26.045Z,63.85
2017-11-18T05:31:54.349Z,64.26
2017-11-18T05:34:22.627Z,64.01
2017-11-18T05:36:50.929Z,64.00
2017-11-18T05:39:20.021Z,64.18
2017-11-18T05:41:49.825Z,64.44
2017-11-18T05:44:18.122Z,64.58
2017-11-18T05:46:46.436Z,64.87
2017-11-18T05:49:15.663Z,64.62
2017-11-18T05:51:43.998Z,64.65
2017-11-18T05:54:12.344Z,64.94
2017-11-18T05:56:40.643Z,65.12
2017-11-18T05:59:09.024Z,65.43
2017-11-18T06:01:37.350Z,65.75
2017-11-18T06:04:06.422Z,65.86
2017-11-18T06:06:34.789Z,65.81
2017-11-18T06:09:03.107Z,65.92
2017-11-18T06:11:33.055Z,66.03
2017-11-18T06:14:01.358Z,66.63
2017-11-18T06:16:29.672Z,66.65
2017-11-18T06:18:58.004Z,66.67
2017-11-18T06:21:26.317Z,66.75
2017-11-18T06:23:54.620Z,66.62
2017-11-18T06:26:23.688Z,66.72
2017-11-18T06:28:52.044Z,67.11
2017-11-18T06:31:20.359Z,67.09
2017-11-18T06:33:48.860Z,66.97
2017-11-18T06:36:17.202Z,67.10
2017-11-18T06:38:45.530Z,67.02
2017-11-18T06:41:13.840Z,66.78
2017-11-18T06:43:43.716Z,66.73
2017-11-18T06:46:12.026Z,66.41
2017-11-18T06:48:41.181Z,66.49
2017-11-18T06:51:10.312Z,66.72
2017-11-18T06:53:38.609Z,66.41
2017-11-18T06:56:07.769Z,66.57
2017-11-18T06:58:36.084Z,66.52
2017-11-18T07:01:04.387Z,66.61
2017-11-18T07:03:33.444Z,66.61
2017-11-18T07:06:01.760Z,66.88
2017-11-18T07:08:31.169Z,66.69
2017-11-18T07:10:59.493Z,66.36
2017-11-18T07:13:27.848Z,66.35
2017-11-18T07:15:56.179Z,66.54
2017-11-18T07:18:24.501Z,66.83
2017-11-18T07:20:53.572Z,66.75
2017-11-18T07:23:22.899Z,66.75
2017-11-18T07:25:51.984Z,66.75
2017-11-18T07:28:20.606Z,66.89
2017-11-18T07:30:48.944Z,66.67
2017-11-18T07:33:18.091Z,66.56
2017-11-18T07:35:46.413Z,66.92
2017-11-18T07:38:14.724Z,66.71
2017-11-18T07:40:43.797Z,66.97
2017-11-18T07:43:12.864Z,66.87
2017-11-18T07:45:41.182Z,66.83
2017-11-18T07:48:10.270Z,66.51
2017-11-18T07:50:38.662Z,66.41
2017-11-18T07:53:07.106Z,65.73
2017-11-18T07:55:35.410Z,65.55
2017-11-18T07:58:03.757Z,65.62
2017-11-18T08:00:32.070Z,65.95
2017-11-18T08:03:00.447Z,65.96
2017-11-18T08:05:29.467Z,65.80
2017-11-18T08:07:57.814Z,65.83
2017-11-18T08:10:26.151Z,65.48
2017-11-18T08:12:55.303Z,65.27
2017-11-18T08:15:23.886Z,65.47
2017-11-18T08:17:52.193Z,65.51
2017-11-18T08:20:20.496Z,65.71
2017-11-18T08:22:50.401Z,65.84
2017-11-18T08:25:18.851Z,65.59
2017-11-18T08:27:47.158Z,65.91
2017-11-18T08:30:15.505Z,66.46
2017-11-18T08:32:43.836Z,66.44
2017-11-18T08:35:12.915Z,66.26
2017-11-18T08:37:41.225Z,66.44
2017-11-18T08:40:09.551Z,66.59
2017-11-18T08:42:37.949Z,66.86
2017-11-18T08:45:06.276Z,66.58
2017-11-18T08:47:34.895Z,66.23
2017-11-18T08:50:04.079Z,66.61
2017-11-18T08:52:32.430Z,66.63
2017-11-18T08:55:00.749Z,66.37
2017-11-18T08:57:29.865Z,66.34
2017-11-18T08:59:58.263Z,66.41
2017-11-18T09:02:26.702Z,66.63
2017-11-18T09:04:55.023Z,66.75
2017-11-18T09:07:23.410Z,66.92
2017-11-18T09:09:51.728Z,67.15
2017-11-18T09:12:20.103Z,66.98
2017-11-18T09:14:48.448Z,67.44
2017-11-18T09:17:16.793Z,67.38
2017-11-18T09:19:45.152Z,67.20
2017-11-18T09:22:13.951Z,67.47
2017-11-18T09:24:42.282Z,66.95
2017-11-18T09:27:10.590Z,66.67
2017-11-18T09:29:39.741Z,66.82
2017-11-18T09:32:08.827Z,66.81
2017-11-18T09:34:37.156Z,67.01
2017-11-18T09:37:05.477Z,67.24
2017-11-18T09:39:33.849Z,67.19
2017-11-18T09:42:02.206Z,67.27
2017-11-18T09:44:30.528Z,67.54
2017-11-18T09:46:58.899Z,68.16
2017-11-18T09:49:27.219Z,68.57
2017-11-18T09:51:56.380Z,70.17
2017-11-18T09:54:24.698Z,71.28
2017-11-18T09:56:53.889Z,71.59
2017-11-18T09:59:22.209Z,71.71
2017-11-18T10:01:50.579Z,70.95
2017-11-18T10:04:19.702Z,70.52
2017-11-18T10:06:48.035Z,70.51
2017-11-18T10:09:16.383Z,70.48
2017-11-18T10:11:44.689Z,69.63
2017-11-18T10:14:13.029Z,69.43
2017-11-18T10:16:41.416Z,69.39
2017-11-18T10:19:09.768Z,68.96
2017-11-18T10:21:39.449Z,68.87
2017-11-18T10:24:09.284Z,69.81
2017-11-18T10:26:37.676Z,71.98
2017-11-18T10:29:06.760Z,73.84
2017-11-18T10:31:35.084Z,75.28
2017-11-18T10:34:03.441Z,76.47
2017-11-18T10:36:32.944Z,77.35
2017-11-18T10:39:02.661Z,77.81
2017-11-18T10:41:31.747Z,78.00
2017-11-18T10:44:00.055Z,78.11
2017-11-18T10:46:28.403Z,77.92
2017-11-18T10:48:56.715Z,77.84
2017-11-18T10:51:25.838Z,77.38
2017-11-18T10:53:54.142Z,77.32
2017-11-18T10:56:22.470Z,77.05
2017-11-18T10:58:51.606Z,76.52
2017-11-18T11:01:19.937Z,75.73
2017-11-18T11:03:48.273Z,75.37
2017-11-18T11:06:16.637Z,75.58
2017-11-18T11:08:44.965Z,74.71
2017-11-18T11:11:13.331Z,73.22
2017-11-18T11:13:41.635Z,73.67
2017-11-18T11:16:09.955Z,73.35
2017-11-18T11:18:39.045Z,73.25
2017-11-18T11:21:08.123Z,73.21
2017-11-18T11:23:36.458Z,73.25
2017-11-18T11:26:04.793Z,72.69
2017-11-18T11:28:33.126Z,72.70
2017-11-18T11:31:01.431Z,72.47
2017-11-18T11:33:29.719Z,71.97
2017-11-18T11:35:58.040Z,71.79
2017-11-18T11:38:27.128Z,71.57
2017-11-18T11:40:56.223Z,70.88
2017-11-18T11:43:24.542Z,70.86
2017-11-18T11:45:52.846Z,70.14
2017-11-18T11:48:21.396Z,69.92
2017-11-18T11:50:50.489Z,69.22
2017-11-18T11:53:19.628Z,68.70
2017-11-18T11:55:47.942Z,68.74
2017-11-18T11:58:16.467Z,68.37
2017-11-18T12:00:44.794Z,68.33
2017-11-18T12:03:13.143Z,67.90
2017-11-18T12:05:41.453Z,67.79
2017-11-18T12:08:09.803Z,67.61
2017-11-18T12:10:38.112Z,68.08
2017-11-18T12:13:06.426Z,67.52
2017-11-18T12:15:35.692Z,67.92
2017-11-18T12:18:04.019Z,67.71
2017-11-18T12:20:32.342Z,67.87
2017-11-18T12:23:00.734Z,66.97
2017-11-18T12:25:29.111Z,65.63
2017-11-18T12:27:57.450Z,65.95
2017-11-18T12:30:25.879Z,65.92
2017-11-18T12:32:54.196Z,65.97
2017-11-18T12:35:22.504Z,65.73
2017-11-18T12:37:51.635Z,66.15
2017-11-18T12:40:19.955Z,66.57
2017-11-18T12:42:48.292Z,67.06
2017-11-18T12:45:16.600Z,66.57
2017-11-18T12:47:44.964Z,67.03
2017-11-18T12:50:14.827Z,67.36
2017-11-18T12:52:43.141Z,68.07
2017-11-18T12:55:12.228Z,68.37
2017-11-18T12:57:41.338Z,68.74
2017-11-18T13:00:09.666Z,69.27
2017-11-18T13:02:38.007Z,71.62
2017-11-18T13:05:06.332Z,73.31
2017-11-18T13:07:34.664Z,75.04
2017-11-18T13:10:03.759Z,77.03
2017-11-18T13:12:32.851Z,79.98
2017-11-18T13:15:01.939Z,81.35
2017-11-18T13:17:31.044Z,82.42
2017-11-18T13:19:59.356Z,83.06
2017-11-18T13:22:27.654Z,83.67
2017-11-18T13:24:55.964Z,83.82
2017-11-18T13:27:24.276Z,84.36
2017-11-18T13:29:53.360Z,84.81
2017-11-18T13:32:21.692Z,85.00
2017-11-18T13:34:49.998Z,84.90
2017-11-18T13:37:18.335Z,84.67
2017-11-18T13:39:46.662Z,84.72
2017-11-18T13:42:14.952Z,84.52
2017-11-18T13:44:43.273Z,84.34
2017-11-18T13:47:12.333Z,84.36
2017-11-18T13:49:40.686Z,83.70
2017-11-18T13:52:09.002Z,83.35
2017-11-18T13:54:37.319Z,83.27
2017-11-18T13:57:06.411Z,83.57
2017-11-18T13:59:35.542Z,84.03
2017-11-18T14:02:03.847Z,84.80
2017-11-18T14:04:32.182Z,85.38
2017-11-18T14:07:01.336Z,85.65
2017-11-18T14:09:29.632Z,86.35
2017-11-18T14:11:57.932Z,86.66
2017-11-18T14:14:26.259Z,87.09
2017-11-18T14:16:54.606Z,87.49
2017-11-18T14:19:23.691Z,87.73
2017-11-18T14:21:52.010Z,87.81
2017-11-18T14:24:20.314Z,87.95
2017-11-18T14:26:48.628Z,87.86
2017-11-18T14:29:16.933Z,88.69
2017-11-18T14:31:46.049Z,87.64
2017-11-18T14:34:14.380Z,87.15
2017-11-18T14:36:42.693Z,86.62
2017-11-18T14:39:11.798Z,86.12
2017-11-18T14:41:40.854Z,85.54
2017-11-18T14:44:09.198Z,85.02
2017-11-18T14:46:37.514Z,83.82
2017-11-18T14:49:05.810Z,83.16
2017-11-18T14:51:34.147Z,81.31
2017-11-18T14:54:02.467Z,80.67
2017-11-18T14:56:30.778Z,79.73
2017-11-18T14:58:59.088Z,79.00
2017-11-18T15:01:27.477Z,78.12
2017-11-18T15:03:55.860Z,76.67
2017-11-18T15:06:24.148Z,75.89
2017-11-18T15:08:52.460Z,77.54
2017-11-18T15:11:20.809Z,79.07
2017-11-18T15:13:49.176Z,79.61
2017-11-18T15:16:22.375Z,79.69
2017-11-18T15:18:57.078Z,79.49
2017-11-18T15:21:31.720Z,79.12
2017-11-18T15:24:16.459Z,78.47
2017-11-18T15:26:51.119Z,77.81
2017-11-18T15:29:24.962Z,77.19
2017-11-18T15:35:17.768Z,77.09
2017-11-18T15:40:53.539Z,77.78
2017-11-18T15:43:22.060Z,77.37
2017-11-18T15:45:50.412Z,77.89
2017-11-18T15:48:24.371Z,78.38
2017-11-18T15:50:53.838Z,78.94
2017-11-18T15:56:40.576Z,79.65
2017-11-18T15:59:08.926Z,80.02
2017-11-18T16:04:44.976Z,80.96
2017-11-18T16:07:16.673Z,81.31
2017-11-18T16:09:44.977Z,81.51
2017-11-18T16:12:14.140Z,81.56
2017-11-18T16:14:42.453Z,82.06
2017-11-18T16:17:11.545Z,81.75
2017-11-18T16:19:40.617Z,81.24
2017-11-18T16:22:08.938Z,81.58
2017-11-18T16:24:38.116Z,81.89
2017-11-18T16:27:06.447Z,82.22
2017-11-18T16:29:34.790Z,82.13
2017-11-18T16:32:03.151Z,82.12
2017-11-18T16:34:31.481Z,82.00
2017-11-18T16:36:59.786Z,81.19
2017-11-18T16:39:28.100Z,80.72
2017-11-18T16:41:56.400Z,79.97
2017-11-18T16:44:24.824Z,79.85
2017-11-18T16:46:53.125Z,79.54
2017-11-18T16:49:21.442Z,78.91
2017-11-18T16:51:49.785Z,79.48
2017-11-18T16:54:18.101Z,79.95
2017-11-18T16:56:46.408Z,79.87
2017-11-18T16:59:16.126Z,79.79
2017-11-18T17:01:44.478Z,80.37
2017-11-18T17:04:12.816Z,80.55
2017-11-18T17:06:41.146Z,80.34
2017-11-18T17:09:10.246Z,79.42
2017-11-18T17:11:38.571Z,79.28
2017-11-18T17:14:08.668Z,79.32
2017-11-18T17:16:37.797Z,79.00
2017-11-18T17:19:06.114Z,79.22
2017-11-18T17:21:34.484Z,79.38
2017-11-18T17:24:02.787Z,79.86
2017-11-18T17:26:31.090Z,80.09
2017-11-18T17:29:00.151Z,80.08
2017-11-18T17:31:28.460Z,79.99
2017-11-18T17:33:56.834Z,80.01
2017-11-18T17:36:26.026Z,79.85
2017-11-18T17:38:55.150Z,79.87
2017-11-18T17:41:23.473Z,80.05
2017-11-18T17:43:51.820Z,80.38
2017-11-18T17:46:20.908Z,80.19
2017-11-18T17:48:49.341Z,80.15
2017-11-18T17:51:17.647Z,80.36
2017-11-18T17:53:45.979Z,80.48
2017-11-18T17:56:14.312Z,80.29
2017-11-18T17:58:42.622Z,79.96
2017-11-18T18:01:10.930Z,80.13
2017-11-18T18:03:39.335Z,79.96
2017-11-18T18:06:07.671Z,81.13
2017-11-18T18:08:36.727Z,81.81
2017-11-18T18:11:05.014Z,82.54
2017-11-18T18:13:33.344Z,82.92
2017-11-18T18:16:02.418Z,83.31
2017-11-18T18:18:30.724Z,82.73
2017-11-18T18:20:59.821Z,83.02
2017-11-18T18:23:28.890Z,83.33
2017-11-18T18:25:57.206Z,83.21
2017-11-18T18:28:26.441Z,82.90
2017-11-18T18:30:54.751Z,82.79
2017-11-18T18:33:23.048Z,82.42
2017-11-18T18:35:51.417Z,82.24
2017-11-18T18:38:19.799Z,82.37
2017-11-18T18:40:48.104Z,82.40
2017-11-18T18:43:16.420Z,82.23
2017-11-18T18:45:44.742Z,81.94
2017-11-18T18:48:13.210Z,81.71
2017-11-18T18:50:41.622Z,81.90
2017-11-18T18:53:11.308Z,82.31
2017-11-18T18:55:39.642Z,82.19
2017-11-18T18:58:08.809Z,82.17
2017-11-18T19:00:37.882Z,82.07
2017-11-18T19:03:06.172Z,81.72
2017-11-18T19:05:34.478Z,81.22
2017-11-18T19:08:03.571Z,80.59
2017-11-18T19:10:31.873Z,79.95
2017-11-18T19:13:00.155Z,79.87
2017-11-18T19:15:28.473Z,78.80
2017-11-18T19:17:56.772Z,78.01
2017-11-18T19:20:25.073Z,78.56
2017-11-18T19:22:53.556Z,79.44
2017-11-18T19:25:21.972Z,80.10
2017-11-18T19:27:51.039Z,80.56
2017-11-18T19:30:21.014Z,81.16
2017-11-18T19:32:49.310Z,81.95
2017-11-18T19:35:17.601Z,82.39
2017-11-18T19:37:45.900Z,82.07
2017-11-18T19:40:14.205Z,82.12
2017-11-18T19:42:42.526Z,82.39
2017-11-18T19:45:10.842Z,82.05
2017-11-18T19:47:39.162Z,82.23
2017-11-18T19:50:07.514Z,81.87
2017-11-18T19:52:35.912Z,81.26
2017-11-18T19:55:04.976Z,81.39
2017-11-18T19:57:33.292Z,80.71
2017-11-18T20:00:02.391Z,80.33
2017-11-18T20:02:31.646Z,79.75
2017-11-18T20:04:59.961Z,79.62
2017-11-18T20:07:29.067Z,79.12
2017-11-18T20:09:57.396Z,79.17
2017-11-18T20:12:25.791Z,78.55
2017-11-18T20:14:54.090Z,78.55
2017-11-18T20:17:22.489Z,78.51
2017-11-18T20:19:50.869Z,79.03
2017-11-18T20:22:19.182Z,79.10
2017-11-18T20:24:48.283Z,79.04
2017-11-18T20:27:17.301Z,79.33
2017-11-18T20:29:45.600Z,79.01
2017-11-18T20:32:13.915Z,78.89
2017-11-18T20:34:42.317Z,79.24
2017-11-18T20:37:10.703Z,78.67
2017-11-18T20:39:38.993Z,77.81
2017-11-18T20:42:08.062Z,77.10
2017-11-18T20:44:37.148Z,76.89
2017-11-18T20:47:05.511Z,76.81
2017-11-18T20:49:33.816Z,77.01
2017-11-18T20:52:02.120Z,76.78
2017-11-18T20:54:31.216Z,77.91
2017-11-18T20:57:01.125Z,79.48
2017-11-18T20:59:29.442Z,80.53
2017-11-18T21:01:58.504Z,81.60
2017-11-18T21:04:26.821Z,82.12
2017-11-18T21:06:55.922Z,83.01
2017-11-18T21:09:25.020Z,83.95
2017-11-18T21:11:54.139Z,84.70
2017-11-18T21:14:22.482Z,85.12
2017-11-18T21:16:50.795Z,85.38
2017-11-18T21:19:19.102Z,85.61
2017-11-18T21:21:47.431Z,85.67
2017-11-18T21:24:15.733Z,85.65
2017-11-18T21:26:44.790Z,86.20
2017-11-18T21:29:13.105Z,86.33
2017-11-18T21:31:42.169Z,86.51
2017-11-18T21:34:10.479Z,86.60
2017-11-18T21:36:38.895Z,86.41
2017-11-18T21:39:07.195Z,85.92
2017-11-18T21:41:35.649Z,85.73
2017-11-18T21:44:04.793Z,85.83
2017-11-18T21:46:33.084Z,85.60
2017-11-18T21:49:01.397Z,85.58
2017-11-18T21:51:30.472Z,85.58
2017-11-18T21:53:58.776Z,85.35
2017-11-18T21:56:27.076Z,85.33
2017-11-18T21:58:56.135Z,85.14
2017-11-18T22:01:25.219Z,84.90
2017-11-18T22:03:53.592Z,84.62
2017-11-18T22:06:21.893Z,84.68
2017-11-18T22:08:50.184Z,84.94
2017-11-18T22:11:18.503Z,85.33
2017-11-18T22:13:47.654Z,85.44
2017-11-18T22:16:15.942Z,85.62
2017-11-18T22:18:44.255Z,85.60
2017-11-18T22:21:13.310Z,85.64
2017-11-18T22:23:41.597Z,85.71
2017-11-18T22:26:09.885Z,85.88
2017-11-18T22:28:39.710Z,85.79
2017-11-18T22:31:08.778Z,85.60
2017-11-18T22:33:37.168Z,85.63
2017-11-18T22:36:05.611Z,86.00
2017-11-18T22:38:33.919Z,85.98
2017-11-18T22:41:02.332Z,85.47
2017-11-18T22:43:30.696Z,85.37
2017-11-18T22:45:58.993Z,84.75
2017-11-18T22:48:27.291Z,84.85
2017-11-18T22:50:56.352Z,84.88
2017-11-18T22:53:24.673Z,84.71
2017-11-18T22:55:53.743Z,83.86
2017-11-18T22:58:22.035Z,83.31
2017-11-18T23:00:50.346Z,83.09
2017-11-18T23:03:19.398Z,81.86
2017-11-18T23:05:47.733Z,80.42
2017-11-18T23:08:16.805Z,77.49
2017-11-18T23:10:45.126Z,76.78
2017-11-18T23:13:13.430Z,76.15
2017-11-18T23:15:41.717Z,76.39
2017-11-18T23:18:10.028Z,74.75
2017-11-18T23:20:38.323Z,74.03
2017-11-18T23:23:06.639Z,72.80
2017-11-18T23:25:34.939Z,73.69
2017-11-18T23:28:03.240Z,73.75
2017-11-18T23:30:32.339Z,74.20
2017-11-18T23:33:00.629Z,74.78
2017-11-18T23:35:28.936Z,75.27
2017-11-18T23:37:58.029Z,75.52
2017-11-18T23:40:26.345Z,75.84
2017-11-18T23:42:54.649Z,75.75
2017-11-18T23:45:22.961Z,75.27
2017-11-18T23:47:52.046Z,75.35
2017-11-18T23:50:20.425Z,74.30
2017-11-18T23:52:48.724Z,74.44
2017-11-18T23:55:17.047Z,74.62
2017-11-18T23:57:45.361Z,74.79
